createdAt,value
2023-04-16T00:01:02.766Z,100382.78
2023-04-16T00:03:31.112Z,100383.72
2023-04-16T00:06:00.805Z,100381.97
2023-04-16T00:08:29.121Z,100376.59
2023-04-16T00:10:57.341Z,100381.97
2023-04-16T00:13:26.165Z,100366.31
2023-04-16T00:15:54.626Z,100384.75
2023-04-16T00:18:22.740Z,100386.47
2023-04-16T00:20:51.264Z,100389.16
2023-04-16T00:23:21.179Z,100381.19
2023-04-16T00:25:49.453Z,100388.34
2023-04-16T00:28:17.940Z,100380.38
2023-04-16T00:30:48.376Z,100391.91
2023-04-16T00:33:18.066Z,100394.50
2023-04-16T00:35:47.385Z,100387.41
2023-04-16T00:38:16.294Z,100390.88
2023-04-16T00:40:45.985Z,100390.94
2023-04-16T00:43:22.020Z,100394.38
2023-04-16T00:45:54.307Z,100397.09
2023-04-16T00:48:23.229Z,100393.63
2023-04-16T00:50:52.145Z,100395.38
2023-04-16T00:53:20.752Z,100395.38
2023-04-16T00:55:50.584Z,100399.84
2023-04-16T00:58:19.675Z,100400.69
2023-04-16T01:00:50.237Z,100391.84
2023-04-16T01:03:19.013Z,100352.53
2023-04-16T01:05:49.534Z,100388.41
2023-04-16T01:08:19.287Z,100391.06
2023-04-16T01:10:47.618Z,100383.09
2023-04-16T01:13:20.019Z,100387.56
2023-04-16T01:15:48.242Z,100390.25
2023-04-16T01:18:16.911Z,100392.03
2023-04-16T01:20:46.863Z,100393.84
2023-04-16T01:23:15.269Z,100408.03
2023-04-16T01:25:43.479Z,100400.03
2023-04-16T01:28:12.062Z,100400.94
2023-04-16T01:30:40.275Z,100400.03
2023-04-16T01:33:23.058Z,100399.16
2023-04-16T01:35:52.611Z,100392.88
2023-04-16T01:38:21.006Z,100405.31
2023-04-16T01:40:49.552Z,100404.41
2023-04-16T01:43:19.126Z,100397.38
2023-04-16T01:45:50.071Z,100404.47
2023-04-16T01:48:21.307Z,100412.44
2023-04-16T01:50:49.902Z,100416.88
2023-04-16T01:53:19.832Z,100416.94
2023-04-16T01:55:48.397Z,100418.66
2023-04-16T01:58:16.992Z,100417.81
2023-04-16T02:00:45.469Z,100423.19
2023-04-16T02:03:14.219Z,100418.81
2023-04-16T02:05:42.540Z,100420.53
2023-04-16T02:08:13.210Z,100419.59
2023-04-16T02:10:43.042Z,100422.31
2023-04-16T02:13:11.249Z,100427.56
2023-04-16T02:15:39.693Z,100429.50
2023-04-16T02:18:08.389Z,100425.06
2023-04-16T02:20:41.369Z,100434.88
2023-04-16T02:23:10.305Z,100426.03
2023-04-16T02:25:43.902Z,100425.06
2023-04-16T02:28:14.736Z,100435.75
2023-04-16T02:30:46.516Z,100426.06
2023-04-16T02:33:20.195Z,100413.97
2023-04-16T02:35:57.897Z,100432.22
2023-04-16T02:38:28.826Z,100439.31
2023-04-16T02:40:59.000Z,100434.94
2023-04-16T02:43:27.216Z,100446.44
2023-04-16T02:45:55.777Z,100421.88
2023-04-16T02:48:24.023Z,100433.22
2023-04-16T02:50:52.081Z,100430.56
2023-04-16T02:53:20.514Z,100442.91
2023-04-16T02:55:52.814Z,100442.06
2023-04-16T02:58:23.980Z,100444.72
2023-04-16T03:00:52.730Z,100442.06
2023-04-16T03:03:22.466Z,100440.31
2023-04-16T03:05:50.974Z,100441.19
2023-04-16T03:08:19.828Z,100448.16
2023-04-16T03:10:48.719Z,100433.16
2023-04-16T03:13:16.812Z,100436.75
2023-04-16T03:15:51.139Z,100437.59
2023-04-16T03:18:21.644Z,100442.06
2023-04-16T03:20:53.429Z,100437.59
2023-04-16T03:23:21.619Z,100426.31
2023-04-16T03:25:49.645Z,100445.63
2023-04-16T03:28:19.854Z,100442.13
2023-04-16T03:30:53.651Z,100443.91
2023-04-16T03:33:22.965Z,100457.19
2023-04-16T03:36:01.443Z,100455.41
2023-04-16T03:38:34.533Z,100464.22
2023-04-16T03:41:02.684Z,100454.53
2023-04-16T03:43:34.316Z,100459.78
2023-04-16T03:46:11.477Z,100456.19
2023-04-16T03:48:39.578Z,100463.31
2023-04-16T03:51:09.840Z,100469.47
2023-04-16T03:53:38.178Z,100460.50
2023-04-16T03:56:06.730Z,100465.88
2023-04-16T03:58:35.134Z,100466.66
2023-04-16T04:01:04.896Z,100466.69
2023-04-16T04:03:35.537Z,100469.41
2023-04-16T04:06:08.482Z,100472.97
2023-04-16T04:08:36.766Z,100465.91
2023-04-16T04:11:06.222Z,100470.34
2023-04-16T04:14:53.296Z,100466.81
2023-04-16T04:17:22.241Z,100465.03
2023-04-16T04:22:28.524Z,100471.22
2023-04-16T04:24:56.974Z,100476.53
2023-04-16T04:27:28.502Z,100479.16
2023-04-16T04:29:58.838Z,100482.75
2023-04-16T04:32:29.092Z,100480.97
2023-04-16T04:34:57.426Z,100484.56
2023-04-16T04:37:25.866Z,100486.28
2023-04-16T04:39:53.983Z,100493.22
2023-04-16T04:42:22.737Z,100487.00
2023-04-16T04:44:51.388Z,100503.72
2023-04-16T04:47:24.023Z,100501.13
2023-04-16T04:49:54.311Z,100496.72
2023-04-16T04:52:26.318Z,100499.38
2023-04-16T04:54:55.137Z,100504.66
2023-04-16T04:57:23.394Z,100507.34
2023-04-16T04:59:54.900Z,100504.69
2023-04-16T05:02:25.245Z,100507.25
2023-04-16T05:04:53.416Z,100512.56
2023-04-16T05:07:22.460Z,100511.59
2023-04-16T05:09:51.055Z,100516.06
2023-04-16T05:12:19.415Z,100525.75
2023-04-16T05:14:47.474Z,100524.78
2023-04-16T05:17:18.388Z,100527.38
2023-04-16T05:19:47.986Z,100537.09
2023-04-16T05:22:19.068Z,100537.94
2023-04-16T05:24:47.209Z,100529.03
2023-04-16T05:27:15.636Z,100510.69
2023-04-16T05:29:43.924Z,100537.84
2023-04-16T05:32:12.292Z,100543.09
2023-04-16T05:34:40.615Z,100547.56
2023-04-16T05:37:10.289Z,100546.63
2023-04-16T05:39:40.511Z,100542.19
2023-04-16T05:42:10.884Z,100543.88
2023-04-16T05:44:39.385Z,100547.47
2023-04-16T05:47:09.368Z,100551.91
2023-04-16T05:49:38.150Z,100554.44
2023-04-16T05:52:07.675Z,100557.06
2023-04-16T05:54:37.231Z,100566.78
2023-04-16T05:57:05.381Z,100564.13
2023-04-16T05:59:34.626Z,100564.00
2023-04-16T06:02:05.221Z,100564.78
2023-04-16T06:04:33.836Z,100565.75
2023-04-16T06:07:01.981Z,100560.28
2023-04-16T06:09:30.895Z,100578.81
2023-04-16T06:12:01.118Z,100561.13
2023-04-16T06:14:29.441Z,100574.41
2023-04-16T06:16:57.521Z,100575.31
2023-04-16T06:19:25.891Z,100577.13
2023-04-16T06:21:56.851Z,100576.31
2023-04-16T06:24:24.960Z,100581.56
2023-04-16T06:26:54.366Z,100580.63
2023-04-16T06:29:36.886Z,100552.72
2023-04-16T06:32:13.852Z,100582.56
2023-04-16T06:34:42.731Z,100583.41
2023-04-16T06:37:10.968Z,100591.47
2023-04-16T06:39:39.270Z,100592.38
2023-04-16T06:42:10.075Z,100591.34
2023-04-16T06:44:39.599Z,100591.13
2023-04-16T06:47:07.889Z,100592.88
2023-04-16T06:49:38.735Z,100600.84
2023-04-16T06:52:06.870Z,100599.13
2023-04-16T06:54:35.209Z,100596.41
2023-04-16T06:57:03.673Z,100595.34
2023-04-16T06:59:31.867Z,100594.47
2023-04-16T07:02:01.567Z,100590.75
2023-04-16T07:04:30.162Z,100594.16
2023-04-16T07:06:58.336Z,100591.31
2023-04-16T07:09:27.288Z,100589.53
2023-04-16T07:11:56.004Z,100583.25
2023-04-16T07:14:24.210Z,100593.06
2023-04-16T07:17:12.448Z,100587.56
2023-04-16T07:19:40.604Z,100591.00
2023-04-16T07:22:08.668Z,100588.84
2023-04-16T07:24:37.260Z,100586.06
2023-04-16T07:27:05.499Z,100591.38
2023-04-16T07:29:36.239Z,100565.00
2023-04-16T07:32:04.869Z,100586.63
2023-04-16T07:34:34.521Z,100595.25
2023-04-16T07:37:02.747Z,100592.94
2023-04-16T07:39:30.989Z,100602.75
2023-04-16T07:41:59.162Z,100599.72
2023-04-16T07:44:30.924Z,100603.53
2023-04-16T07:47:02.860Z,100606.00
2023-04-16T07:49:34.349Z,100606.75
2023-04-16T07:52:03.400Z,100605.81
2023-04-16T07:54:33.814Z,100614.50
2023-04-16T07:57:02.291Z,100611.84
2023-04-16T07:59:31.018Z,100614.34
2023-04-16T08:01:59.313Z,100614.28
2023-04-16T08:04:27.902Z,100617.81
2023-04-16T08:06:57.866Z,100613.16
2023-04-16T08:09:29.495Z,100620.63
2023-04-16T08:11:58.083Z,100619.25
2023-04-16T08:14:29.555Z,100619.59
2023-04-16T08:16:57.687Z,100625.75
2023-04-16T08:19:25.933Z,100628.56
2023-04-16T08:21:54.745Z,100640.41
2023-04-16T08:24:24.368Z,100635.31
2023-04-16T08:26:53.615Z,100642.63
2023-04-16T08:29:26.441Z,100638.31
2023-04-16T08:31:54.963Z,100647.81
2023-04-16T08:34:23.624Z,100646.66
2023-04-16T08:36:52.338Z,100655.63
2023-04-16T08:39:20.714Z,100660.41
2023-04-16T08:41:51.218Z,100663.22
2023-04-16T08:44:22.565Z,100662.50
2023-04-16T08:46:54.858Z,100669.00
2023-04-16T08:49:25.291Z,100667.44
2023-04-16T08:51:55.286Z,100663.13
2023-04-16T08:54:34.102Z,100676.44
2023-04-16T08:57:07.327Z,100675.00
2023-04-16T08:59:37.173Z,100678.50
2023-04-16T09:02:07.381Z,100672.97
2023-04-16T09:04:37.894Z,100671.22
2023-04-16T09:07:09.402Z,100659.75
2023-04-16T09:09:41.081Z,100682.78
2023-04-16T09:12:11.527Z,100678.41
2023-04-16T09:15:57.330Z,100678.44
2023-04-16T09:18:28.511Z,100681.06
2023-04-16T09:20:57.816Z,100684.59
2023-04-16T09:23:28.203Z,100683.72
2023-04-16T09:25:59.732Z,100679.28
2023-04-16T09:28:44.886Z,100685.44
2023-04-16T09:31:16.319Z,100686.31
2023-04-16T09:34:01.482Z,100680.31
2023-04-16T09:36:30.276Z,100691.91
2023-04-16T09:38:59.394Z,100691.19
2023-04-16T09:41:29.401Z,100697.25
2023-04-16T09:43:58.611Z,100691.94
2023-04-16T09:46:31.924Z,100689.28
2023-04-16T09:48:59.928Z,100700.81
2023-04-16T09:51:37.784Z,100699.13
2023-04-16T09:54:08.115Z,100697.22
2023-04-16T09:56:43.684Z,100691.78
2023-04-16T09:59:17.977Z,100704.16
2023-04-16T10:01:51.116Z,100700.72
2023-04-16T10:04:19.464Z,100694.34
2023-04-16T10:07:04.552Z,100709.50
2023-04-16T10:09:33.627Z,100718.25
2023-04-16T10:12:02.067Z,100709.47
2023-04-16T10:14:30.976Z,100710.41
2023-04-16T10:17:00.862Z,100711.91
2023-04-16T10:19:33.235Z,100710.16
2023-04-16T10:22:01.750Z,100724.19
2023-04-16T10:24:31.224Z,100718.66
2023-04-16T10:27:00.171Z,100723.94
2023-04-16T10:29:29.894Z,100724.84
2023-04-16T10:32:00.900Z,100715.09
2023-04-16T10:34:32.890Z,100717.53
2023-04-16T10:37:01.061Z,100721.16
2023-04-16T10:39:30.125Z,100722.72
2023-04-16T10:42:09.908Z,100717.59
2023-04-16T10:44:38.780Z,100727.06
2023-04-16T10:47:13.651Z,100724.53
2023-04-16T10:49:44.899Z,100719.22
2023-04-16T10:52:17.065Z,100722.81
2023-04-16T10:54:48.441Z,100721.94
2023-04-16T10:57:18.809Z,100711.13
2023-04-16T10:59:50.455Z,100717.31
2023-04-16T11:02:20.558Z,100721.88
2023-04-16T11:04:50.287Z,100726.13
2023-04-16T11:07:21.022Z,100719.03
2023-04-16T11:09:57.738Z,100715.28
2023-04-16T11:12:34.440Z,100717.69
2023-04-16T11:15:04.112Z,100716.28
2023-04-16T11:20:26.312Z,100706.97
2023-04-16T11:22:56.157Z,100713.41
2023-04-16T11:25:26.492Z,100702.66
2023-04-16T11:27:55.055Z,100712.03
2023-04-16T11:30:30.973Z,100716.31
2023-04-16T11:33:04.593Z,100708.31
2023-04-16T11:35:33.170Z,100716.94
2023-04-16T11:38:04.142Z,100719.53
2023-04-16T11:40:36.326Z,100714.13
2023-04-16T11:43:06.086Z,100718.66
2023-04-16T11:45:34.493Z,100721.22
2023-04-16T11:48:04.246Z,100714.78
2023-04-16T11:50:32.733Z,100708.41
2023-04-16T11:53:06.471Z,100716.47
2023-04-16T11:55:44.613Z,100715.00
2023-04-16T11:58:15.362Z,100718.31
2023-04-16T12:00:46.241Z,100721.00
2023-04-16T12:03:16.642Z,100722.69
2023-04-16T12:05:45.110Z,100711.44
2023-04-16T12:08:13.739Z,100715.88
2023-04-16T12:10:54.972Z,100717.44
2023-04-16T12:13:23.899Z,100721.22
2023-04-16T12:15:53.469Z,100721.06
2023-04-16T12:18:27.423Z,100721.63
2023-04-16T12:20:56.125Z,100725.78
2023-04-16T12:23:28.073Z,100717.81
2023-04-16T12:25:59.768Z,100725.63
2023-04-16T12:28:30.186Z,100718.16
2023-04-16T12:30:58.644Z,100729.16
2023-04-16T12:33:28.698Z,100723.81
2023-04-16T12:35:56.939Z,100720.00
2023-04-16T12:38:26.311Z,100732.72
2023-04-16T12:40:57.355Z,100730.75
2023-04-16T12:43:26.269Z,100731.22
2023-04-16T12:45:57.449Z,100737.03
2023-04-16T12:48:25.655Z,100726.91
2023-04-16T12:50:56.194Z,100727.44
2023-04-16T12:53:24.773Z,100730.00
2023-04-16T12:55:53.215Z,100730.81
2023-04-16T12:58:21.450Z,100725.38
2023-04-16T13:00:49.949Z,100723.91
2023-04-16T13:03:18.314Z,100721.00
2023-04-16T13:05:46.612Z,100733.00
2023-04-16T13:08:16.818Z,100734.53
2023-04-16T13:10:45.077Z,100735.44
2023-04-16T13:13:13.473Z,100735.50
2023-04-16T13:15:44.337Z,100735.94
2023-04-16T13:18:14.870Z,100737.72
2023-04-16T13:20:43.401Z,100741.47
2023-04-16T13:23:12.078Z,100746.28
2023-04-16T13:25:41.667Z,100734.28
2023-04-16T13:28:10.210Z,100744.13
2023-04-16T13:30:38.924Z,100739.69
2023-04-16T13:33:07.066Z,100740.56
2023-04-16T13:35:35.818Z,100746.78
2023-04-16T13:38:04.400Z,100745.66
2023-04-16T13:40:32.673Z,100735.88
2023-04-16T13:43:02.312Z,100740.38
2023-04-16T13:45:30.554Z,100736.78
2023-04-16T13:47:58.794Z,100744.88
2023-04-16T13:50:30.023Z,100744.63
2023-04-16T13:52:58.813Z,100745.81
2023-04-16T13:55:27.026Z,100754.78
2023-04-16T13:57:56.368Z,100744.31
2023-04-16T14:00:27.411Z,100748.16
2023-04-16T14:02:55.742Z,100742.91
2023-04-16T14:05:27.342Z,100743.06
2023-04-16T14:07:57.717Z,100747.53
2023-04-16T14:10:26.631Z,100746.72
2023-04-16T14:12:58.580Z,100739.97
2023-04-16T14:16:56.747Z,100748.25
2023-04-16T14:19:27.399Z,100754.53
2023-04-16T14:21:57.853Z,100744.06
2023-04-16T14:24:26.085Z,100751.47
2023-04-16T14:26:56.507Z,100756.00
2023-04-16T14:29:24.692Z,100758.72
2023-04-16T14:31:53.085Z,100756.25
2023-04-16T14:34:22.585Z,100765.00
2023-04-16T14:36:51.991Z,100756.78
2023-04-16T14:39:20.226Z,100753.97
2023-04-16T14:41:48.848Z,100733.69
2023-04-16T14:44:17.056Z,100753.78
2023-04-16T14:46:47.830Z,100749.31
2023-04-16T14:49:18.178Z,100743.19
2023-04-16T14:51:50.658Z,100736.06
2023-04-16T14:54:19.268Z,100752.63
2023-04-16T14:56:47.761Z,100749.97
2023-04-16T14:59:16.644Z,100743.09
2023-04-16T15:01:47.451Z,100726.34
2023-04-16T15:04:18.842Z,100746.78
2023-04-16T15:06:47.221Z,100742.94
2023-04-16T15:09:19.127Z,100743.31
2023-04-16T15:11:48.157Z,100738.41
2023-04-16T15:14:16.825Z,100741.22
2023-04-16T15:16:46.060Z,100741.94
2023-04-16T15:19:14.285Z,100739.06
2023-04-16T15:21:47.484Z,100746.78
2023-04-16T15:24:16.983Z,100745.25
2023-04-16T15:26:46.591Z,100741.34
2023-04-16T15:29:14.825Z,100745.59
2023-04-16T15:31:43.793Z,100744.94
2023-04-16T15:34:12.735Z,100730.91
2023-04-16T15:36:41.235Z,100744.13
2023-04-16T15:39:11.905Z,100748.47
2023-04-16T15:41:57.385Z,100744.03
2023-04-16T15:44:36.232Z,100746.09
2023-04-16T15:47:06.400Z,100746.78
2023-04-16T15:49:37.631Z,100753.47
2023-04-16T15:52:06.773Z,100753.22
2023-04-16T15:54:34.961Z,100748.56
2023-04-16T15:57:03.361Z,100739.09
2023-04-16T15:59:33.619Z,100749.09
2023-04-16T16:02:04.214Z,100751.59
2023-04-16T16:04:32.530Z,100754.09
2023-04-16T16:07:02.543Z,100753.31
2023-04-16T16:09:31.423Z,100751.75
2023-04-16T16:12:00.035Z,100751.78
2023-04-16T16:14:28.224Z,100754.72
2023-04-16T16:16:57.944Z,100752.06
2023-04-16T16:19:29.101Z,100757.41
2023-04-16T16:21:57.827Z,100755.09
2023-04-16T16:24:26.512Z,100761.41
2023-04-16T16:26:54.821Z,100762.34
2023-04-16T16:29:23.163Z,100768.56
2023-04-16T16:31:51.722Z,100763.81
2023-04-16T16:34:21.615Z,100756.84
2023-04-16T16:36:50.735Z,100765.59
2023-04-16T16:39:22.349Z,100764.53
2023-04-16T16:41:52.408Z,100762.66
2023-04-16T16:44:20.926Z,100762.59
2023-04-16T16:46:49.537Z,100760.75
2023-04-16T16:49:18.780Z,100752.66
2023-04-16T16:51:48.669Z,100764.94
2023-04-16T16:54:19.074Z,100762.84
2023-04-16T16:56:50.279Z,100759.16
2023-04-16T16:59:18.879Z,100769.59
2023-04-16T17:01:47.165Z,100771.28
2023-04-16T17:04:17.184Z,100767.66
2023-04-16T17:06:49.105Z,100765.81
2023-04-16T17:09:18.132Z,100768.25
2023-04-16T17:11:46.575Z,100768.97
2023-04-16T17:14:14.893Z,100781.34
2023-04-16T17:16:46.478Z,100777.69
2023-04-16T17:19:18.114Z,100780.44
2023-04-16T17:21:48.784Z,100784.09
2023-04-16T17:24:17.998Z,100786.78
2023-04-16T17:26:46.297Z,100782.41
2023-04-16T17:29:14.793Z,100785.22
2023-04-16T17:31:43.158Z,100784.41
2023-04-16T17:34:11.758Z,100785.47
2023-04-16T17:36:40.066Z,100799.72
2023-04-16T17:39:10.574Z,100802.53
2023-04-16T17:41:38.884Z,100802.63
2023-04-16T17:44:08.455Z,100798.31
2023-04-16T17:46:38.707Z,100805.47
2023-04-16T17:49:06.877Z,100799.38
2023-04-16T17:51:37.390Z,100810.97
2023-04-16T17:54:07.183Z,100811.97
2023-04-16T17:56:39.069Z,100814.69
2023-04-16T17:59:09.805Z,100807.63
2023-04-16T18:01:38.670Z,100812.09
2023-04-16T18:04:07.211Z,100822.84
2023-04-16T18:06:36.215Z,100823.88
2023-04-16T18:09:05.874Z,100832.78
2023-04-16T18:11:38.460Z,100830.19
2023-04-16T18:14:10.399Z,100826.69
2023-04-16T18:16:39.251Z,100827.59
2023-04-16T18:19:09.214Z,100829.44
2023-04-16T18:21:37.636Z,100834.81
2023-04-16T18:24:06.860Z,100835.72
2023-04-16T18:26:36.231Z,100842.00
2023-04-16T18:29:06.097Z,100842.06
2023-04-16T18:31:35.260Z,100856.25
2023-04-16T18:34:05.667Z,100865.19
2023-04-16T18:36:33.862Z,100859.09
2023-04-16T18:39:02.732Z,100843.25
2023-04-16T18:41:31.801Z,100855.00
2023-04-16T18:44:01.222Z,100862.28
2023-04-16T18:46:30.919Z,100868.09
2023-04-16T18:49:00.213Z,100860.34
2023-04-16T18:51:28.660Z,100869.47
2023-04-16T18:53:57.006Z,100870.41
2023-04-16T18:56:26.158Z,100873.13
2023-04-16T18:58:57.468Z,100872.47
2023-04-16T19:01:25.763Z,100866.28
2023-04-16T19:03:56.122Z,100868.22
2023-04-16T19:06:24.544Z,100878.88
2023-04-16T19:08:53.309Z,100873.72
2023-04-16T19:11:21.939Z,100874.75
2023-04-16T19:13:50.566Z,100880.19
2023-04-16T19:17:56.170Z,100881.22
2023-04-16T19:20:24.411Z,100876.88
2023-04-16T19:22:52.641Z,100876.94
2023-04-16T19:25:21.162Z,100879.69
2023-04-16T19:27:49.351Z,100886.78
2023-04-16T19:30:17.775Z,100874.47
2023-04-16T19:32:45.968Z,100880.72
2023-04-16T19:35:16.048Z,100884.25
2023-04-16T19:37:47.029Z,100878.06
2023-04-16T19:40:17.734Z,100886.94
2023-04-16T19:42:46.260Z,100890.53
2023-04-16T19:45:18.534Z,100886.09
2023-04-16T19:47:49.210Z,100865.84
2023-04-16T19:50:19.044Z,100883.38
2023-04-16T19:52:49.509Z,100888.72
2023-04-16T19:55:18.098Z,100892.28
2023-04-16T19:57:48.527Z,100894.03
2023-04-16T20:00:18.073Z,100896.69
2023-04-16T20:02:46.266Z,100897.56
2023-04-16T20:05:14.993Z,100901.09
2023-04-16T20:07:44.442Z,100894.88
2023-04-16T20:10:12.990Z,100897.63
2023-04-16T20:12:41.382Z,100895.91
2023-04-16T20:15:12.819Z,100901.22
2023-04-16T20:17:43.196Z,100902.94
2023-04-16T20:20:12.364Z,100905.56
2023-04-16T20:22:41.162Z,100902.09
2023-04-16T20:25:11.522Z,100908.34
2023-04-16T20:27:39.966Z,100902.16
2023-04-16T20:30:09.025Z,100883.66
2023-04-16T20:32:37.378Z,100903.09
2023-04-16T20:35:10.971Z,100899.53
2023-04-16T20:37:39.955Z,100896.91
2023-04-16T20:40:15.088Z,100902.28
2023-04-16T20:42:47.259Z,100906.72
2023-04-16T20:45:17.899Z,100897.91
2023-04-16T20:47:46.502Z,100906.75
2023-04-16T20:50:15.066Z,100900.59
2023-04-16T20:52:43.621Z,100897.00
2023-04-16T20:55:11.834Z,100892.66
2023-04-16T20:57:41.646Z,100892.66
2023-04-16T21:00:12.091Z,100893.50
2023-04-16T21:02:40.953Z,100903.31
2023-04-16T21:05:14.266Z,100894.44
2023-04-16T21:07:42.809Z,100892.72
2023-04-16T21:10:11.718Z,100897.09
2023-04-16T21:12:43.798Z,100892.66
2023-04-16T21:15:12.736Z,100895.31
2023-04-16T21:17:41.227Z,100897.09
2023-04-16T21:20:13.528Z,100901.53
2023-04-16T21:22:41.910Z,100893.59
2023-04-16T21:25:11.586Z,100892.72
2023-04-16T21:27:39.694Z,100895.38
2023-04-16T21:30:11.054Z,100890.94
2023-04-16T21:32:39.223Z,100895.38
2023-04-16T21:35:10.854Z,100897.06
2023-04-16T21:37:39.218Z,100892.72
2023-04-16T21:40:10.498Z,100895.38
2023-04-16T21:42:40.004Z,100892.72
2023-04-16T21:45:12.420Z,100890.97
2023-04-16T21:47:41.109Z,100890.13
2023-04-16T21:50:10.170Z,100884.81
2023-04-16T21:52:46.820Z,100897.22
2023-04-16T21:55:15.387Z,100885.75
2023-04-16T21:57:43.905Z,100882.19
2023-04-16T22:00:18.498Z,100882.25
2023-04-16T22:02:46.696Z,100883.13
2023-04-16T22:05:15.239Z,100886.63
2023-04-16T22:07:43.610Z,100885.69
2023-04-16T22:10:13.707Z,100887.44
2023-04-16T22:12:45.113Z,100876.69
2023-04-16T22:15:15.446Z,100874.81
2023-04-16T22:17:43.718Z,100881.84
2023-04-16T22:20:13.339Z,100878.22
2023-04-16T22:22:42.630Z,100866.81
2023-04-16T22:25:11.345Z,100879.84
2023-04-16T22:27:39.767Z,100874.50
2023-04-16T22:30:09.379Z,100883.38
2023-04-16T22:32:41.983Z,100887.81
2023-04-16T22:35:10.861Z,100878.13
2023-04-16T22:37:38.981Z,100881.66
2023-04-16T22:40:11.889Z,100885.16
2023-04-16T22:42:40.123Z,100882.41
2023-04-16T22:45:09.408Z,100877.09
2023-04-16T22:47:37.565Z,100873.53
2023-04-16T22:50:08.822Z,100886.84
2023-04-16T22:52:36.903Z,100865.78
2023-04-16T22:55:08.667Z,100887.81
2023-04-16T22:57:37.302Z,100891.38
2023-04-16T23:00:09.661Z,100892.31
2023-04-16T23:02:38.004Z,100889.66
2023-04-16T23:05:08.599Z,100889.69
2023-04-16T23:07:36.834Z,100890.56
2023-04-16T23:10:05.462Z,100888.00
2023-04-16T23:12:33.534Z,100891.50
2023-04-16T23:15:02.128Z,100888.00
2023-04-16T23:17:33.610Z,100880.91
2023-04-16T23:20:02.142Z,100883.53
2023-04-16T23:22:31.809Z,100886.19
2023-04-16T23:25:00.013Z,100889.75
2023-04-16T23:27:28.402Z,100887.06
2023-04-16T23:29:56.565Z,100887.97
2023-04-16T23:32:25.229Z,100883.63
2023-04-16T23:34:53.339Z,100884.47
2023-04-16T23:37:21.911Z,100884.47
2023-04-16T23:39:51.741Z,100875.63
2023-04-16T23:42:19.962Z,100886.28
2023-04-16T23:44:48.347Z,100880.13
2023-04-16T23:47:16.592Z,100881.03
2023-04-16T23:49:45.012Z,100885.44
2023-04-16T23:52:13.137Z,100882.78
2023-04-16T23:54:41.392Z,100884.59
2023-04-16T23:57:13.283Z,100882.81
2023-04-16T23:59:41.511Z,100885.47
